sensor_id;sensor_type;location;lat;lon;timestamp;pressure;altitude;pressure_sealevel;temperature;humidity
27840;BME280;15207;42.182;24.308;2024-02-15T00:00:58;99567.44;;;7.76;56.10
27840;BME280;15207;42.182;24.308;2024-02-15T00:03:25;99566.78;;;7.73;56.63
27840;BME280;15207;42.182;24.308;2024-02-15T00:05:50;99564.38;;;7.83;56.46
27840;BME280;15207;42.182;24.308;2024-02-15T00:08:16;99563.47;;;7.69;57.12
27840;BME280;15207;42.182;24.308;2024-02-15T00:10:41;99565.34;;;7.81;56.70
27840;BME280;15207;42.182;24.308;2024-02-15T00:13:06;99572.38;;;7.68;55.96
27840;BME280;15207;42.182;24.308;2024-02-15T00:15:32;99572.22;;;7.71;56.58
27840;BME280;15207;42.182;24.308;2024-02-15T00:17:59;99572.59;;;7.79;56.25
27840;BME280;15207;42.182;24.308;2024-02-15T00:20:25;99569.34;;;7.89;56.34
27840;BME280;15207;42.182;24.308;2024-02-15T00:22:50;99569.13;;;7.92;56.10
27840;BME280;15207;42.182;24.308;2024-02-15T00:25:17;99565.25;;;7.83;55.58
27840;BME280;15207;42.182;24.308;2024-02-15T00:27:42;99574.47;;;7.77;56.28
27840;BME280;15207;42.182;24.308;2024-02-15T00:30:08;99572.50;;;7.81;56.25
27840;BME280;15207;42.182;24.308;2024-02-15T00:32:34;99565.56;;;7.78;56.48
27840;BME280;15207;42.182;24.308;2024-02-15T00:34:59;99561.94;;;7.65;56.60
27840;BME280;15207;42.182;24.308;2024-02-15T00:37:25;99562.59;;;7.54;57.13
27840;BME280;15207;42.182;24.308;2024-02-15T00:39:50;99563.94;;;7.61;56.52
27840;BME280;15207;42.182;24.308;2024-02-15T00:42:16;99563.38;;;7.56;56.47
27840;BME280;15207;42.182;24.308;2024-02-15T00:44:42;99567.19;;;7.52;57.00
27840;BME280;15207;42.182;24.308;2024-02-15T00:47:09;99562.59;;;7.54;57.16
27840;BME280;15207;42.182;24.308;2024-02-15T00:49:35;99564.91;;;7.46;57.54
27840;BME280;15207;42.182;24.308;2024-02-15T00:52:01;99560.97;;;7.51;56.96
27840;BME280;15207;42.182;24.308;2024-02-15T00:54:26;99560.72;;;7.41;57.57
27840;BME280;15207;42.182;24.308;2024-02-15T00:56:51;99563.16;;;7.45;57.19
27840;BME280;15207;42.182;24.308;2024-02-15T00:59:17;99561.47;;;7.44;57.47
27840;BME280;15207;42.182;24.308;2024-02-15T01:01:43;99565.66;;;7.48;57.47
27840;BME280;15207;42.182;24.308;2024-02-15T01:04:08;99555.28;;;7.43;56.97
27840;BME280;15207;42.182;24.308;2024-02-15T01:06:34;99558.78;;;7.44;56.87
27840;BME280;15207;42.182;24.308;2024-02-15T01:09:00;99558.13;;;7.40;57.61
27840;BME280;15207;42.182;24.308;2024-02-15T01:11:29;99556.22;;;7.42;57.61
27840;BME280;15207;42.182;24.308;2024-02-15T01:13:57;99553.38;;;7.45;57.15
27840;BME280;15207;42.182;24.308;2024-02-15T01:16:22;99560.97;;;7.51;57.26
27840;BME280;15207;42.182;24.308;2024-02-15T01:18:48;99548.69;;;7.49;57.29
27840;BME280;15207;42.182;24.308;2024-02-15T01:21:14;99551.38;;;7.49;57.32
27840;BME280;15207;42.182;24.308;2024-02-15T01:23:39;99550.81;;;7.44;57.74
27840;BME280;15207;42.182;24.308;2024-02-15T01:26:04;99547.88;;;7.34;58.29
27840;BME280;15207;42.182;24.308;2024-02-15T01:28:30;99555.16;;;7.30;58.01
27840;BME280;15207;42.182;24.308;2024-02-15T01:30:55;99554.50;;;7.26;58.33
27840;BME280;15207;42.182;24.308;2024-02-15T01:33:21;99553.56;;;7.42;57.76
27840;BME280;15207;42.182;24.308;2024-02-15T01:35:47;99558.72;;;7.45;57.99
27840;BME280;15207;42.182;24.308;2024-02-15T01:38:13;99561.06;;;7.35;57.87
27840;BME280;15207;42.182;24.308;2024-02-15T01:40:39;99559.66;;;7.30;57.89
27840;BME280;15207;42.182;24.308;2024-02-15T01:43:04;99556.88;;;7.17;58.95
27840;BME280;15207;42.182;24.308;2024-02-15T01:45:29;99558.28;;;7.22;58.54
27840;BME280;15207;42.182;24.308;2024-02-15T01:47:56;99569.25;;;7.18;58.33
27840;BME280;15207;42.182;24.308;2024-02-15T01:50:23;99568.94;;;7.22;58.04
27840;BME280;15207;42.182;24.308;2024-02-15T01:52:51;99566.50;;;7.34;56.96
27840;BME280;15207;42.182;24.308;2024-02-15T01:55:18;99568.59;;;7.28;57.13
27840;BME280;15207;42.182;24.308;2024-02-15T01:57:44;99573.06;;;7.43;56.69
27840;BME280;15207;42.182;24.308;2024-02-15T02:00:14;99574.84;;;7.27;57.06
27840;BME280;15207;42.182;24.308;2024-02-15T02:02:41;99569.53;;;7.27;57.08
27840;BME280;15207;42.182;24.308;2024-02-15T02:05:08;99579.63;;;7.37;56.80
27840;BME280;15207;42.182;24.308;2024-02-15T02:07:33;99582.69;;;7.31;56.74
27840;BME280;15207;42.182;24.308;2024-02-15T02:09:59;99580.31;;;7.40;56.76
27840;BME280;15207;42.182;24.308;2024-02-15T02:12:25;99576.50;;;7.16;57.41
27840;BME280;15207;42.182;24.308;2024-02-15T02:14:55;99572.88;;;7.31;57.43
27840;BME280;15207;42.182;24.308;2024-02-15T02:17:21;99579.25;;;7.28;57.00
27840;BME280;15207;42.182;24.308;2024-02-15T02:19:46;99581.34;;;7.38;57.17
27840;BME280;15207;42.182;24.308;2024-02-15T02:22:13;99586.97;;;7.48;56.56
27840;BME280;15207;42.182;24.308;2024-02-15T02:24:52;99588.97;;;7.44;56.84
27840;BME280;15207;42.182;24.308;2024-02-15T02:27:19;99585.53;;;7.42;57.14
27840;BME280;15207;42.182;24.308;2024-02-15T02:29:45;99587.34;;;7.41;56.49
27840;BME280;15207;42.182;24.308;2024-02-15T02:32:11;99590.84;;;7.42;57.32
27840;BME280;15207;42.182;24.308;2024-02-15T02:34:38;99583.66;;;7.44;56.98
27840;BME280;15207;42.182;24.308;2024-02-15T02:37:04;99578.59;;;7.39;57.37
27840;BME280;15207;42.182;24.308;2024-02-15T02:39:31;99585.25;;;7.47;57.11
27840;BME280;15207;42.182;24.308;2024-02-15T02:41:57;99581.81;;;7.30;57.06
27840;BME280;15207;42.182;24.308;2024-02-15T02:44:22;99584.22;;;7.35;56.14
27840;BME280;15207;42.182;24.308;2024-02-15T02:46:48;99590.97;;;7.40;56.33
27840;BME280;15207;42.182;24.308;2024-02-15T02:49:13;99582.13;;;7.40;57.17
27840;BME280;15207;42.182;24.308;2024-02-15T02:51:38;99585.03;;;7.35;56.54
27840;BME280;15207;42.182;24.308;2024-02-15T02:54:04;99592.94;;;7.37;57.06
27840;BME280;15207;42.182;24.308;2024-02-15T02:56:32;99580.88;;;7.31;56.36
27840;BME280;15207;42.182;24.308;2024-02-15T02:58:58;99586.88;;;7.35;56.08
27840;BME280;15207;42.182;24.308;2024-02-15T03:01:24;99584.94;;;7.22;56.18
27840;BME280;15207;42.182;24.308;2024-02-15T03:03:52;99583.53;;;7.31;55.69
27840;BME280;15207;42.182;24.308;2024-02-15T03:06:20;99583.44;;;7.18;55.36
27840;BME280;15207;42.182;24.308;2024-02-15T03:08:46;99591.22;;;7.21;55.54
27840;BME280;15207;42.182;24.308;2024-02-15T03:11:12;99590.66;;;7.31;55.74
27840;BME280;15207;42.182;24.308;2024-02-15T03:13:39;99601.41;;;7.29;56.38
27840;BME280;15207;42.182;24.308;2024-02-15T03:16:05;99598.97;;;7.40;55.65
27840;BME280;15207;42.182;24.308;2024-02-15T03:18:31;99601.13;;;7.19;55.29
27840;BME280;15207;42.182;24.308;2024-02-15T03:20:57;99602.00;;;7.34;55.30
27840;BME280;15207;42.182;24.308;2024-02-15T03:23:23;99601.78;;;7.23;55.69
27840;BME280;15207;42.182;24.308;2024-02-15T03:25:48;99601.81;;;7.37;55.81
27840;BME280;15207;42.182;24.308;2024-02-15T03:28:14;99605.06;;;7.43;56.39
27840;BME280;15207;42.182;24.308;2024-02-15T03:30:41;99608.00;;;7.23;56.96
27840;BME280;15207;42.182;24.308;2024-02-15T03:33:08;99611.22;;;7.28;56.74
27840;BME280;15207;42.182;24.308;2024-02-15T03:35:34;99610.94;;;7.33;56.42
27840;BME280;15207;42.182;24.308;2024-02-15T03:38:00;99612.94;;;7.30;55.84
27840;BME280;15207;42.182;24.308;2024-02-15T03:40:26;99601.25;;;7.32;55.53
27840;BME280;15207;42.182;24.308;2024-02-15T03:42:53;99602.25;;;7.15;56.58
27840;BME280;15207;42.182;24.308;2024-02-15T03:45:19;99598.84;;;7.27;56.97
27840;BME280;15207;42.182;24.308;2024-02-15T03:47:44;99605.69;;;7.32;56.88
27840;BME280;15207;42.182;24.308;2024-02-15T03:50:11;99611.59;;;7.37;56.71
27840;BME280;15207;42.182;24.308;2024-02-15T03:52:40;99607.97;;;7.38;56.94
27840;BME280;15207;42.182;24.308;2024-02-15T03:55:06;99611.31;;;7.27;57.50
27840;BME280;15207;42.182;24.308;2024-02-15T03:57:38;99608.56;;;7.28;57.06
27840;BME280;15207;42.182;24.308;2024-02-15T04:00:06;99619.09;;;7.16;57.78
27840;BME280;15207;42.182;24.308;2024-02-15T04:02:33;99619.09;;;7.16;57.90
27840;BME280;15207;42.182;24.308;2024-02-15T04:05:00;99616.22;;;7.04;58.37
27840;BME280;15207;42.182;24.308;2024-02-15T04:07:26;99615.53;;;7.00;58.68
27840;BME280;15207;42.182;24.308;2024-02-15T04:09:52;99621.03;;;6.97;58.64
27840;BME280;15207;42.182;24.308;2024-02-15T04:12:18;99621.31;;;6.93;58.73
27840;BME280;15207;42.182;24.308;2024-02-15T04:14:44;99612.56;;;6.91;58.64
27840;BME280;15207;42.182;24.308;2024-02-15T04:17:13;99618.75;;;6.91;59.17
27840;BME280;15207;42.182;24.308;2024-02-15T04:19:39;99618.38;;;6.97;58.53
27840;BME280;15207;42.182;24.308;2024-02-15T04:22:05;99617.34;;;7.00;58.83
27840;BME280;15207;42.182;24.308;2024-02-15T04:24:33;99614.97;;;6.95;59.53
27840;BME280;15207;42.182;24.308;2024-02-15T04:26:58;99627.31;;;6.96;59.04
27840;BME280;15207;42.182;24.308;2024-02-15T04:29:24;99624.25;;;6.88;58.82
27840;BME280;15207;42.182;24.308;2024-02-15T04:31:49;99611.84;;;7.03;59.16
27840;BME280;15207;42.182;24.308;2024-02-15T04:34:17;99617.56;;;7.11;58.82
27840;BME280;15207;42.182;24.308;2024-02-15T04:36:47;99618.97;;;7.03;59.31
27840;BME280;15207;42.182;24.308;2024-02-15T04:39:18;99618.03;;;7.04;59.04
27840;BME280;15207;42.182;24.308;2024-02-15T04:41:52;99623.63;;;6.99;58.32
27840;BME280;15207;42.182;24.308;2024-02-15T04:44:17;99620.78;;;7.02;58.65
27840;BME280;15207;42.182;24.308;2024-02-15T04:46:46;99619.91;;;7.01;58.81
27840;BME280;15207;42.182;24.308;2024-02-15T04:49:12;99615.53;;;7.00;58.76
27840;BME280;15207;42.182;24.308;2024-02-15T04:51:38;99614.81;;;7.13;58.91
27840;BME280;15207;42.182;24.308;2024-02-15T04:54:04;99621.72;;;7.01;59.06
27840;BME280;15207;42.182;24.308;2024-02-15T04:56:32;99627.19;;;7.14;58.81
27840;BME280;15207;42.182;24.308;2024-02-15T04:58:58;99622.06;;;6.95;58.56
27840;BME280;15207;42.182;24.308;2024-02-15T05:01:23;99631.97;;;6.93;58.95
27840;BME280;15207;42.182;24.308;2024-02-15T05:03:49;99633.44;;;6.98;58.80
27840;BME280;15207;42.182;24.308;2024-02-15T05:06:14;99624.41;;;7.01;58.44
27840;BME280;15207;42.182;24.308;2024-02-15T05:08:40;99629.38;;;7.22;58.33
27840;BME280;15207;42.182;24.308;2024-02-15T05:11:14;99632.31;;;7.17;58.73
27840;BME280;15207;42.182;24.308;2024-02-15T05:13:47;99639.47;;;7.17;58.22
27840;BME280;15207;42.182;24.308;2024-02-15T05:16:15;99646.09;;;7.09;57.94
27840;BME280;15207;42.182;24.308;2024-02-15T05:18:41;99638.38;;;7.05;57.84
27840;BME280;15207;42.182;24.308;2024-02-15T05:21:06;99639.72;;;7.12;57.39
27840;BME280;15207;42.182;24.308;2024-02-15T05:23:38;99640.72;;;6.95;58.56
27840;BME280;15207;42.182;24.308;2024-02-15T05:26:08;99647.03;;;7.08;58.74
27840;BME280;15207;42.182;24.308;2024-02-15T05:28:34;99658.66;;;7.07;58.63
27840;BME280;15207;42.182;24.308;2024-02-15T05:31:12;99665.84;;;7.05;58.01
27840;BME280;15207;42.182;24.308;2024-02-15T05:33:41;99661.22;;;7.09;58.68
27840;BME280;15207;42.182;24.308;2024-02-15T05:36:10;99661.16;;;7.10;58.37
27840;BME280;15207;42.182;24.308;2024-02-15T05:38:36;99664.81;;;7.08;58.38
27840;BME280;15207;42.182;24.308;2024-02-15T05:41:04;99674.22;;;6.99;58.94
27840;BME280;15207;42.182;24.308;2024-02-15T05:43:31;99679.38;;;7.02;58.58
27840;BME280;15207;42.182;24.308;2024-02-15T05:45:57;99667.97;;;7.14;58.46
27840;BME280;15207;42.182;24.308;2024-02-15T05:48:24;99676.69;;;7.18;58.49
27840;BME280;15207;42.182;24.308;2024-02-15T05:50:49;99675.19;;;7.28;57.99
27840;BME280;15207;42.182;24.308;2024-02-15T05:53:15;99682.09;;;7.17;59.13
27840;BME280;15207;42.182;24.308;2024-02-15T05:55:40;99686.00;;;7.25;58.18
27840;BME280;15207;42.182;24.308;2024-02-15T05:58:09;99685.06;;;7.26;58.22
27840;BME280;15207;42.182;24.308;2024-02-15T06:00:36;99685.06;;;7.26;58.05
27840;BME280;15207;42.182;24.308;2024-02-15T06:03:04;99692.09;;;7.27;58.10
27840;BME280;15207;42.182;24.308;2024-02-15T06:05:31;99694.28;;;7.21;57.93
27840;BME280;15207;42.182;24.308;2024-02-15T06:07:57;99697.41;;;7.27;58.36
27840;BME280;15207;42.182;24.308;2024-02-15T06:10:24;99696.84;;;7.22;58.00
27840;BME280;15207;42.182;24.308;2024-02-15T06:12:50;99687.53;;;7.30;58.37
27840;BME280;15207;42.182;24.308;2024-02-15T06:15:16;99701.75;;;7.45;58.06
27840;BME280;15207;42.182;24.308;2024-02-15T06:17:42;99702.94;;;7.24;58.05
27840;BME280;15207;42.182;24.308;2024-02-15T06:20:12;99700.31;;;7.39;57.64
27840;BME280;15207;42.182;24.308;2024-02-15T06:22:40;99701.91;;;7.27;57.85
27840;BME280;15207;42.182;24.308;2024-02-15T06:25:05;99703.34;;;7.33;57.72
27840;BME280;15207;42.182;24.308;2024-02-15T06:27:31;99704.19;;;7.33;57.96
27840;BME280;15207;42.182;24.308;2024-02-15T06:29:57;99701.13;;;7.25;58.28
27840;BME280;15207;42.182;24.308;2024-02-15T06:32:42;99699.19;;;7.43;57.83
27840;BME280;15207;42.182;24.308;2024-02-15T06:35:27;99701.91;;;7.27;58.28
27840;BME280;15207;42.182;24.308;2024-02-15T06:38:10;99698.56;;;7.23;58.16
27840;BME280;15207;42.182;24.308;2024-02-15T06:40:54;99703.16;;;7.05;58.79
27840;BME280;15207;42.182;24.308;2024-02-15T06:43:20;99711.19;;;7.20;57.39
27840;BME280;15207;42.182;24.308;2024-02-15T06:45:46;99707.78;;;7.18;57.58
27840;BME280;15207;42.182;24.308;2024-02-15T06:48:12;99713.69;;;7.23;57.77
27840;BME280;15207;42.182;24.308;2024-02-15T06:50:38;99717.97;;;7.25;57.65
27840;BME280;15207;42.182;24.308;2024-02-15T06:53:04;99717.84;;;7.12;58.21
27840;BME280;15207;42.182;24.308;2024-02-15T06:55:30;99716.28;;;7.24;58.19
27840;BME280;15207;42.182;24.308;2024-02-15T06:57:56;99722.72;;;7.20;58.29
27840;BME280;15207;42.182;24.308;2024-02-15T07:00:21;99718.06;;;7.24;58.03
27840;BME280;15207;42.182;24.308;2024-02-15T07:02:47;99729.63;;;7.39;57.51
27840;BME280;15207;42.182;24.308;2024-02-15T07:05:14;99720.03;;;7.36;57.40
27840;BME280;15207;42.182;24.308;2024-02-15T07:07:39;99730.69;;;7.36;56.71
27840;BME280;15207;42.182;24.308;2024-02-15T07:10:08;99726.47;;;7.32;56.78
27840;BME280;15207;42.182;24.308;2024-02-15T07:12:33;99722.91;;;7.48;56.73
27840;BME280;15207;42.182;24.308;2024-02-15T07:14:59;99729.19;;;7.47;56.14
27840;BME280;15207;42.182;24.308;2024-02-15T07:17:27;99719.56;;;7.44;56.30
27840;BME280;15207;42.182;24.308;2024-02-15T07:19:53;99725.66;;;7.46;56.39
27840;BME280;15207;42.182;24.308;2024-02-15T07:22:18;99735.47;;;7.46;56.92
27840;BME280;15207;42.182;24.308;2024-02-15T07:24:43;99732.34;;;7.68;56.27
27840;BME280;15207;42.182;24.308;2024-02-15T07:27:09;99734.00;;;7.71;55.40
27840;BME280;15207;42.182;24.308;2024-02-15T07:29:35;99730.56;;;7.68;55.31
27840;BME280;15207;42.182;24.308;2024-02-15T07:32:03;99725.16;;;7.85;55.92
27840;BME280;15207;42.182;24.308;2024-02-15T07:34:30;99732.28;;;7.84;55.07
27840;BME280;15207;42.182;24.308;2024-02-15T07:36:55;99718.78;;;8.02;55.02
27840;BME280;15207;42.182;24.308;2024-02-15T07:39:23;99719.63;;;7.88;55.32
27840;BME280;15207;42.182;24.308;2024-02-15T07:41:52;99720.69;;;8.00;54.64
27840;BME280;15207;42.182;24.308;2024-02-15T07:44:18;99729.53;;;8.00;54.45
27840;BME280;15207;42.182;24.308;2024-02-15T07:46:43;99734.88;;;8.00;54.39
27840;BME280;15207;42.182;24.308;2024-02-15T07:49:09;99730.69;;;7.96;54.09
27840;BME280;15207;42.182;24.308;2024-02-15T07:51:34;99738.78;;;7.94;53.92
27840;BME280;15207;42.182;24.308;2024-02-15T07:54:01;99732.03;;;7.89;53.98
27840;BME280;15207;42.182;24.308;2024-02-15T07:56:26;99736.31;;;7.91;54.38
27840;BME280;15207;42.182;24.308;2024-02-15T07:58:52;99729.44;;;7.87;55.22
27840;BME280;15207;42.182;24.308;2024-02-15T08:01:18;99727.06;;;7.97;53.95
27840;BME280;15207;42.182;24.308;2024-02-15T08:03:46;99731.91;;;7.90;54.35
27840;BME280;15207;42.182;24.308;2024-02-15T08:06:13;99735.94;;;7.98;54.09
27840;BME280;15207;42.182;24.308;2024-02-15T08:08:41;99731.75;;;8.08;53.67
27840;BME280;15207;42.182;24.308;2024-02-15T08:11:06;99728.69;;;8.00;53.90
27840;BME280;15207;42.182;24.308;2024-02-15T08:13:39;99728.50;;;8.03;53.87
27840;BME280;15207;42.182;24.308;2024-02-15T08:16:05;99723.34;;;8.14;53.98
27840;BME280;15207;42.182;24.308;2024-02-15T08:18:30;99725.75;;;8.04;54.08
27840;BME280;15207;42.182;24.308;2024-02-15T08:20:57;99727.53;;;8.18;54.62
27840;BME280;15207;42.182;24.308;2024-02-15T08:23:22;99728.69;;;8.29;53.82
27840;BME280;15207;42.182;24.308;2024-02-15T08:25:47;99724.78;;;8.34;53.31
27840;BME280;15207;42.182;24.308;2024-02-15T08:28:13;99723.16;;;8.32;53.51
27840;BME280;15207;42.182;24.308;2024-02-15T08:30:38;99722.38;;;8.30;53.34
27840;BME280;15207;42.182;24.308;2024-02-15T08:33:04;99718.31;;;8.24;53.04
27840;BME280;15207;42.182;24.308;2024-02-15T08:35:29;99721.06;;;8.23;53.00
27840;BME280;15207;42.182;24.308;2024-02-15T08:37:55;99727.16;;;8.39;53.43
27840;BME280;15207;42.182;24.308;2024-02-15T08:40:21;99731.66;;;8.39;52.39
27840;BME280;15207;42.182;24.308;2024-02-15T08:42:50;99734.78;;;8.60;52.61
27840;BME280;15207;42.182;24.308;2024-02-15T08:45:16;99741.03;;;8.73;53.08
27840;BME280;15207;42.182;24.308;2024-02-15T08:47:42;99737.69;;;8.84;51.86
27840;BME280;15207;42.182;24.308;2024-02-15T08:50:09;99737.75;;;8.97;51.06
27840;BME280;15207;42.182;24.308;2024-02-15T08:52:35;99733.69;;;9.05;51.53
27840;BME280;15207;42.182;24.308;2024-02-15T08:55:07;99730.59;;;9.11;51.08
27840;BME280;15207;42.182;24.308;2024-02-15T08:57:34;99736.22;;;9.21;51.47
27840;BME280;15207;42.182;24.308;2024-02-15T09:00:00;99732.44;;;9.51;50.68
27840;BME280;15207;42.182;24.308;2024-02-15T09:02:25;99725.22;;;9.38;49.87
27840;BME280;15207;42.182;24.308;2024-02-15T09:04:51;99729.97;;;9.48;49.80
27840;BME280;15207;42.182;24.308;2024-02-15T09:07:16;99723.00;;;9.45;49.39
27840;BME280;15207;42.182;24.308;2024-02-15T09:09:42;99719.81;;;9.53;49.90
27840;BME280;15207;42.182;24.308;2024-02-15T09:12:07;99716.09;;;9.69;49.79
27840;BME280;15207;42.182;24.308;2024-02-15T09:14:33;99715.97;;;9.70;49.40
27840;BME280;15207;42.182;24.308;2024-02-15T09:17:00;99720.06;;;9.76;48.85
27840;BME280;15207;42.182;24.308;2024-02-15T09:19:26;99725.63;;;9.73;49.45
27840;BME280;15207;42.182;24.308;2024-02-15T09:21:51;99720.94;;;9.89;48.89
27840;BME280;15207;42.182;24.308;2024-02-15T09:24:16;99721.75;;;10.03;49.72
27840;BME280;15207;42.182;24.308;2024-02-15T09:26:42;99714.91;;;10.25;48.44
27840;BME280;15207;42.182;24.308;2024-02-15T09:29:09;99720.34;;;10.49;48.25
27840;BME280;15207;42.182;24.308;2024-02-15T09:31:35;99710.13;;;10.67;47.10
27840;BME280;15207;42.182;24.308;2024-02-15T09:34:01;99716.63;;;10.76;47.90
27840;BME280;15207;42.182;24.308;2024-02-15T09:36:34;99711.41;;;10.99;47.38
27840;BME280;15207;42.182;24.308;2024-02-15T09:38:59;99707.88;;;11.34;47.19
27840;BME280;15207;42.182;24.308;2024-02-15T09:41:25;99696.88;;;11.62;46.48
27840;BME280;15207;42.182;24.308;2024-02-15T09:43:50;99697.63;;;11.75;45.57
27840;BME280;15207;42.182;24.308;2024-02-15T09:46:17;99691.28;;;11.88;45.61
27840;BME280;15207;42.182;24.308;2024-02-15T09:48:49;99695.28;;;11.82;44.95
27840;BME280;15207;42.182;24.308;2024-02-15T09:51:16;99681.66;;;11.74;45.49
27840;BME280;15207;42.182;24.308;2024-02-15T09:53:44;99684.00;;;11.90;44.34
27840;BME280;15207;42.182;24.308;2024-02-15T09:56:10;99674.59;;;12.07;44.25
27840;BME280;15207;42.182;24.308;2024-02-15T09:58:37;99670.31;;;11.93;44.09
27840;BME280;15207;42.182;24.308;2024-02-15T10:01:03;99674.09;;;11.90;44.43
27840;BME280;15207;42.182;24.308;2024-02-15T10:03:34;99674.69;;;11.83;44.42
27840;BME280;15207;42.182;24.308;2024-02-15T10:06:04;99665.44;;;11.98;45.14
27840;BME280;15207;42.182;24.308;2024-02-15T10:08:29;99660.66;;;12.02;44.08
27840;BME280;15207;42.182;24.308;2024-02-15T10:11:07;99657.06;;;12.14;44.67
27840;BME280;15207;42.182;24.308;2024-02-15T10:13:34;99655.09;;;12.28;43.86
27840;BME280;15207;42.182;24.308;2024-02-15T10:15:59;99649.16;;;12.68;43.12
27840;BME280;15207;42.182;24.308;2024-02-15T10:18:38;99648.88;;;12.72;44.60
27840;BME280;15207;42.182;24.308;2024-02-15T10:21:04;99636.06;;;12.96;43.02
27840;BME280;15207;42.182;24.308;2024-02-15T10:23:29;99623.22;;;13.00;42.75
27840;BME280;15207;42.182;24.308;2024-02-15T10:25:55;99622.13;;;13.24;42.09
27840;BME280;15207;42.182;24.308;2024-02-15T10:28:21;99620.22;;;13.15;42.21
27840;BME280;15207;42.182;24.308;2024-02-15T10:30:52;99615.00;;;13.13;41.60
27840;BME280;15207;42.182;24.308;2024-02-15T10:33:28;99607.91;;;12.91;43.29
27840;BME280;15207;42.182;24.308;2024-02-15T10:36:10;99613.06;;;12.82;42.63
27840;BME280;15207;42.182;24.308;2024-02-15T10:38:38;99604.88;;;12.84;43.01
27840;BME280;15207;42.182;24.308;2024-02-15T10:41:05;99605.91;;;12.93;42.99
27840;BME280;15207;42.182;24.308;2024-02-15T10:43:32;99597.72;;;12.94;42.40
27840;BME280;15207;42.182;24.308;2024-02-15T10:45:58;99587.56;;;12.98;42.67
27840;BME280;15207;42.182;24.308;2024-02-15T10:48:24;99592.03;;;13.09;41.95
27840;BME280;15207;42.182;24.308;2024-02-15T10:50:51;99581.94;;;13.01;42.35
27840;BME280;15207;42.182;24.308;2024-02-15T10:55:53;99580.63;;;13.17;42.28
27840;BME280;15207;42.182;24.308;2024-02-15T10:58:23;99575.91;;;13.30;42.00
27840;BME280;15207;42.182;24.308;2024-02-15T11:00:50;99567.28;;;13.36;42.82
27840;BME280;15207;42.182;24.308;2024-02-15T11:03:30;99569.75;;;13.71;41.27
27840;BME280;15207;42.182;24.308;2024-02-15T11:05:57;99560.38;;;13.65;41.08
27840;BME280;15207;42.182;24.308;2024-02-15T11:08:24;99554.66;;;13.89;41.16
27840;BME280;15207;42.182;24.308;2024-02-15T11:10:50;99548.06;;;14.04;40.37
27840;BME280;15207;42.182;24.308;2024-02-15T11:13:16;99548.00;;;13.94;40.13
27840;BME280;15207;42.182;24.308;2024-02-15T11:15:44;99541.81;;;14.13;40.65
27840;BME280;15207;42.182;24.308;2024-02-15T11:21:15;99538.88;;;14.36;39.58
27840;BME280;15207;42.182;24.308;2024-02-15T11:23:41;99524.13;;;14.20;39.73
27840;BME280;15207;42.182;24.308;2024-02-15T11:26:13;99528.63;;;14.20;39.97
27840;BME280;15207;42.182;24.308;2024-02-15T11:28:55;99520.28;;;14.23;39.55
27840;BME280;15207;42.182;24.308;2024-02-15T11:31:54;99517.03;;;14.29;39.49
27840;BME280;15207;42.182;24.308;2024-02-15T11:37:04;99511.66;;;14.19;39.77
27840;BME280;15207;42.182;24.308;2024-02-15T11:39:40;99512.22;;;14.33;40.38
27840;BME280;15207;42.182;24.308;2024-02-15T11:42:25;99507.41;;;14.46;39.14
27840;BME280;15207;42.182;24.308;2024-02-15T11:45:03;99507.66;;;14.63;39.55
27840;BME280;15207;42.182;24.308;2024-02-15T11:47:32;99505.69;;;14.75;38.91
27840;BME280;15207;42.182;24.308;2024-02-15T11:49:59;99500.41;;;14.73;39.02
27840;BME280;15207;42.182;24.308;2024-02-15T11:52:24;99507.69;;;14.83;38.78
27840;BME280;15207;42.182;24.308;2024-02-15T11:54:50;99498.88;;;14.61;39.01
27840;BME280;15207;42.182;24.308;2024-02-15T11:57:16;99496.63;;;14.66;39.48
27840;BME280;15207;42.182;24.308;2024-02-15T11:59:51;99502.28;;;14.73;39.26
27840;BME280;15207;42.182;24.308;2024-02-15T12:02:38;99488.53;;;14.76;38.77
27840;BME280;15207;42.182;24.308;2024-02-15T12:05:22;99488.66;;;14.74;39.51
27840;BME280;15207;42.182;24.308;2024-02-15T12:08:05;99496.34;;;14.69;38.48
27840;BME280;15207;42.182;24.308;2024-02-15T12:10:59;99494.47;;;14.70;39.34
27840;BME280;15207;42.182;24.308;2024-02-15T12:13:43;99486.81;;;14.75;39.35
27840;BME280;15207;42.182;24.308;2024-02-15T12:16:27;99481.31;;;14.66;38.49
27840;BME280;15207;42.182;24.308;2024-02-15T12:19:11;99491.81;;;14.40;38.97
27840;BME280;15207;42.182;24.308;2024-02-15T12:21:37;99485.97;;;14.15;39.16
27840;BME280;15207;42.182;24.308;2024-02-15T12:24:07;99485.09;;;13.95;40.07
27840;BME280;15207;42.182;24.308;2024-02-15T12:26:32;99483.69;;;14.00;39.51
27840;BME280;15207;42.182;24.308;2024-02-15T12:28:59;99477.88;;;13.95;39.58
27840;BME280;15207;42.182;24.308;2024-02-15T12:31:26;99490.34;;;13.96;40.43
27840;BME280;15207;42.182;24.308;2024-02-15T12:34:02;99489.47;;;13.86;39.41
27840;BME280;15207;42.182;24.308;2024-02-15T12:36:32;99486.28;;;13.61;39.93
27840;BME280;15207;42.182;24.308;2024-02-15T12:39:02;99482.47;;;13.64;40.10
27840;BME280;15207;42.182;24.308;2024-02-15T12:41:36;99479.09;;;13.71;40.19
27840;BME280;15207;42.182;24.308;2024-02-15T12:44:01;99485.69;;;13.98;39.66
27840;BME280;15207;42.182;24.308;2024-02-15T12:46:27;99483.28;;;14.15;39.77
27840;BME280;15207;42.182;24.308;2024-02-15T12:49:06;99483.16;;;14.17;38.88
27840;BME280;15207;42.182;24.308;2024-02-15T12:51:32;99482.16;;;14.27;39.25
27840;BME280;15207;42.182;24.308;2024-02-15T12:54:08;99486.69;;;14.17;39.16
27840;BME280;15207;42.182;24.308;2024-02-15T12:56:34;99478.50;;;14.28;38.90
27840;BME280;15207;42.182;24.308;2024-02-15T12:59:01;99483.56;;;14.32;38.79
27840;BME280;15207;42.182;24.308;2024-02-15T13:01:27;99488.25;;;14.39;39.34
27840;BME280;15207;42.182;24.308;2024-02-15T13:03:54;99491.09;;;14.28;39.65
27840;BME280;15207;42.182;24.308;2024-02-15T13:06:19;99491.66;;;14.22;39.24
27840;BME280;15207;42.182;24.308;2024-02-15T13:08:49;99492.66;;;14.31;39.41